sensor_id;sensor_type;location;lat;lon;timestamp;P1;durP1;ratioP1;P2;durP2;ratioP2
75820;SDS011;64454;51.984;9.838;2024-01-11T00:00:42;44.17;;;27.02;;
75820;SDS011;64454;51.984;9.838;2024-01-11T00:03:09;49.13;;;27.40;;
75820;SDS011;64454;51.984;9.838;2024-01-11T00:05:35;49.42;;;28.48;;
75820;SDS011;64454;51.984;9.838;2024-01-11T00:08:02;50.40;;;29.38;;
75820;SDS011;64454;51.984;9.838;2024-01-11T00:10:29;46.28;;;26.10;;
75820;SDS011;64454;51.984;9.838;2024-01-11T00:12:55;48.37;;;28.60;;
75820;SDS011;64454;51.984;9.838;2024-01-11T00:15:21;48.70;;;28.17;;
75820;SDS011;64454;51.984;9.838;2024-01-11T00:17:47;46.35;;;28.48;;
75820;SDS011;64454;51.984;9.838;2024-01-11T00:20:14;43.53;;;26.05;;
75820;SDS011;64454;51.984;9.838;2024-01-11T00:22:40;47.55;;;28.55;;
75820;SDS011;64454;51.984;9.838;2024-01-11T00:25:06;49.92;;;26.35;;
75820;SDS011;64454;51.984;9.838;2024-01-11T00:27:33;44.63;;;26.55;;
75820;SDS011;64454;51.984;9.838;2024-01-11T00:29:59;44.85;;;25.48;;
75820;SDS011;64454;51.984;9.838;2024-01-11T00:32:26;42.42;;;24.40;;
75820;SDS011;64454;51.984;9.838;2024-01-11T00:34:52;44.08;;;24.60;;
75820;SDS011;64454;51.984;9.838;2024-01-11T00:37:18;46.72;;;26.15;;
75820;SDS011;64454;51.984;9.838;2024-01-11T00:39:44;36.30;;;23.15;;
75820;SDS011;64454;51.984;9.838;2024-01-11T00:42:11;40.70;;;24.52;;
75820;SDS011;64454;51.984;9.838;2024-01-11T00:44:37;43.90;;;24.63;;
75820;SDS011;64454;51.984;9.838;2024-01-11T00:47:03;45.83;;;25.55;;
75820;SDS011;64454;51.984;9.838;2024-01-11T00:49:29;42.00;;;24.88;;
75820;SDS011;64454;51.984;9.838;2024-01-11T00:51:55;40.20;;;23.45;;
75820;SDS011;64454;51.984;9.838;2024-01-11T00:54:22;40.65;;;24.55;;
75820;SDS011;64454;51.984;9.838;2024-01-11T00:56:49;42.75;;;25.10;;
75820;SDS011;64454;51.984;9.838;2024-01-11T00:59:16;37.63;;;23.13;;
75820;SDS011;64454;51.984;9.838;2024-01-11T01:01:46;40.15;;;23.52;;
75820;SDS011;64454;51.984;9.838;2024-01-11T01:04:13;42.67;;;24.45;;
75820;SDS011;64454;51.984;9.838;2024-01-11T01:06:40;39.75;;;23.55;;
75820;SDS011;64454;51.984;9.838;2024-01-11T01:09:07;40.47;;;24.02;;
75820;SDS011;64454;51.984;9.838;2024-01-11T01:11:34;42.20;;;24.80;;
75820;SDS011;64454;51.984;9.838;2024-01-11T01:14:00;42.63;;;24.40;;
75820;SDS011;64454;51.984;9.838;2024-01-11T01:16:26;40.67;;;24.45;;
75820;SDS011;64454;51.984;9.838;2024-01-11T01:18:52;43.83;;;24.20;;
75820;SDS011;64454;51.984;9.838;2024-01-11T01:21:19;38.15;;;23.30;;
75820;SDS011;64454;51.984;9.838;2024-01-11T01:23:45;35.57;;;22.93;;
75820;SDS011;64454;51.984;9.838;2024-01-11T01:26:11;42.00;;;24.00;;
75820;SDS011;64454;51.984;9.838;2024-01-11T01:28:38;39.20;;;23.38;;
75820;SDS011;64454;51.984;9.838;2024-01-11T01:31:05;38.80;;;22.13;;
75820;SDS011;64454;51.984;9.838;2024-01-11T01:33:31;40.88;;;24.95;;
75820;SDS011;64454;51.984;9.838;2024-01-11T01:35:57;41.40;;;23.83;;
75820;SDS011;64454;51.984;9.838;2024-01-11T01:38:23;39.30;;;23.58;;
75820;SDS011;64454;51.984;9.838;2024-01-11T01:40:49;41.80;;;23.27;;
75820;SDS011;64454;51.984;9.838;2024-01-11T01:43:15;43.15;;;24.38;;
75820;SDS011;64454;51.984;9.838;2024-01-11T01:45:42;41.13;;;24.42;;
75820;SDS011;64454;51.984;9.838;2024-01-11T01:48:08;41.30;;;23.65;;
75820;SDS011;64454;51.984;9.838;2024-01-11T01:50:34;41.15;;;24.42;;
75820;SDS011;64454;51.984;9.838;2024-01-11T01:53:01;41.47;;;24.10;;
75820;SDS011;64454;51.984;9.838;2024-01-11T01:55:28;41.83;;;24.63;;
75820;SDS011;64454;51.984;9.838;2024-01-11T01:57:55;40.70;;;23.08;;
75820;SDS011;64454;51.984;9.838;2024-01-11T02:00:23;36.80;;;23.42;;
75820;SDS011;64454;51.984;9.838;2024-01-11T02:02:50;45.25;;;24.92;;
75820;SDS011;64454;51.984;9.838;2024-01-11T02:05:17;40.47;;;24.42;;
75820;SDS011;64454;51.984;9.838;2024-01-11T02:07:44;42.60;;;25.00;;
75820;SDS011;64454;51.984;9.838;2024-01-11T02:10:10;41.60;;;25.05;;
75820;SDS011;64454;51.984;9.838;2024-01-11T02:12:37;41.55;;;25.00;;
75820;SDS011;64454;51.984;9.838;2024-01-11T02:15:05;41.53;;;24.75;;
75820;SDS011;64454;51.984;9.838;2024-01-11T02:17:32;47.80;;;26.60;;
75820;SDS011;64454;51.984;9.838;2024-01-11T02:19:59;40.35;;;24.27;;
75820;SDS011;64454;51.984;9.838;2024-01-11T02:22:28;40.65;;;24.65;;
75820;SDS011;64454;51.984;9.838;2024-01-11T02:25:03;41.58;;;24.50;;
75820;SDS011;64454;51.984;9.838;2024-01-11T02:27:30;43.92;;;23.38;;
75820;SDS011;64454;51.984;9.838;2024-01-11T02:29:56;45.33;;;25.17;;
75820;SDS011;64454;51.984;9.838;2024-01-11T02:32:22;41.67;;;25.10;;
75820;SDS011;64454;51.984;9.838;2024-01-11T02:34:48;38.90;;;23.20;;
75820;SDS011;64454;51.984;9.838;2024-01-11T02:37:15;41.25;;;24.13;;
75820;SDS011;64454;51.984;9.838;2024-01-11T02:39:42;41.28;;;23.85;;
75820;SDS011;64454;51.984;9.838;2024-01-11T02:42:09;46.60;;;26.10;;
75820;SDS011;64454;51.984;9.838;2024-01-11T02:44:35;41.35;;;25.33;;
75820;SDS011;64454;51.984;9.838;2024-01-11T02:47:01;42.55;;;26.25;;
75820;SDS011;64454;51.984;9.838;2024-01-11T02:49:28;38.38;;;24.90;;
75820;SDS011;64454;51.984;9.838;2024-01-11T02:51:54;42.67;;;25.38;;
75820;SDS011;64454;51.984;9.838;2024-01-11T02:54:20;39.42;;;24.52;;
75820;SDS011;64454;51.984;9.838;2024-01-11T02:56:46;41.70;;;25.25;;
75820;SDS011;64454;51.984;9.838;2024-01-11T02:59:13;41.60;;;24.40;;
75820;SDS011;64454;51.984;9.838;2024-01-11T03:01:40;40.75;;;24.35;;
75820;SDS011;64454;51.984;9.838;2024-01-11T03:04:06;44.97;;;24.92;;
75820;SDS011;64454;51.984;9.838;2024-01-11T03:06:32;48.80;;;25.33;;
75820;SDS011;64454;51.984;9.838;2024-01-11T03:08:58;44.83;;;26.50;;
75820;SDS011;64454;51.984;9.838;2024-01-11T03:11:24;45.50;;;25.92;;
75820;SDS011;64454;51.984;9.838;2024-01-11T03:13:50;41.50;;;24.65;;
75820;SDS011;64454;51.984;9.838;2024-01-11T03:16:17;44.50;;;25.60;;
75820;SDS011;64454;51.984;9.838;2024-01-11T03:18:43;47.58;;;24.75;;
75820;SDS011;64454;51.984;9.838;2024-01-11T03:21:09;39.70;;;23.63;;
75820;SDS011;64454;51.984;9.838;2024-01-11T03:23:35;45.10;;;24.63;;
75820;SDS011;64454;51.984;9.838;2024-01-11T03:26:01;46.17;;;25.15;;
75820;SDS011;64454;51.984;9.838;2024-01-11T03:28:28;41.63;;;24.83;;
75820;SDS011;64454;51.984;9.838;2024-01-11T03:30:54;39.58;;;25.65;;
75820;SDS011;64454;51.984;9.838;2024-01-11T03:33:21;47.15;;;24.88;;
75820;SDS011;64454;51.984;9.838;2024-01-11T03:35:47;41.70;;;24.73;;
75820;SDS011;64454;51.984;9.838;2024-01-11T03:38:13;45.00;;;25.73;;
75820;SDS011;64454;51.984;9.838;2024-01-11T03:40:39;44.50;;;24.80;;
75820;SDS011;64454;51.984;9.838;2024-01-11T03:43:05;43.30;;;25.77;;
75820;SDS011;64454;51.984;9.838;2024-01-11T03:45:31;40.78;;;24.20;;
75820;SDS011;64454;51.984;9.838;2024-01-11T03:47:57;38.72;;;24.38;;
75820;SDS011;64454;51.984;9.838;2024-01-11T03:50:24;40.10;;;23.73;;
75820;SDS011;64454;51.984;9.838;2024-01-11T03:52:50;48.03;;;25.90;;
75820;SDS011;64454;51.984;9.838;2024-01-11T03:55:16;43.35;;;26.45;;
75820;SDS011;64454;51.984;9.838;2024-01-11T03:57:42;42.33;;;25.52;;
75820;SDS011;64454;51.984;9.838;2024-01-11T04:00:09;42.55;;;25.23;;
75820;SDS011;64454;51.984;9.838;2024-01-11T04:02:36;42.42;;;25.13;;
75820;SDS011;64454;51.984;9.838;2024-01-11T04:05:03;47.50;;;27.13;;
75820;SDS011;64454;51.984;9.838;2024-01-11T04:07:31;46.60;;;26.45;;
75820;SDS011;64454;51.984;9.838;2024-01-11T04:09:57;40.60;;;26.42;;
75820;SDS011;64454;51.984;9.838;2024-01-11T04:12:23;44.72;;;25.23;;
75820;SDS011;64454;51.984;9.838;2024-01-11T04:14:49;39.88;;;24.02;;
75820;SDS011;64454;51.984;9.838;2024-01-11T04:17:15;42.53;;;25.60;;
75820;SDS011;64454;51.984;9.838;2024-01-11T04:19:41;46.17;;;25.25;;
75820;SDS011;64454;51.984;9.838;2024-01-11T04:22:08;45.67;;;24.77;;
75820;SDS011;64454;51.984;9.838;2024-01-11T04:24:35;44.08;;;25.77;;
75820;SDS011;64454;51.984;9.838;2024-01-11T04:27:01;44.78;;;25.65;;
75820;SDS011;64454;51.984;9.838;2024-01-11T04:29:28;42.58;;;25.05;;
75820;SDS011;64454;51.984;9.838;2024-01-11T04:31:55;42.75;;;24.80;;
75820;SDS011;64454;51.984;9.838;2024-01-11T04:34:20;40.65;;;24.42;;
75820;SDS011;64454;51.984;9.838;2024-01-11T04:36:47;46.60;;;26.53;;
75820;SDS011;64454;51.984;9.838;2024-01-11T04:39:13;43.55;;;24.77;;
75820;SDS011;64454;51.984;9.838;2024-01-11T04:41:39;45.70;;;25.52;;
75820;SDS011;64454;51.984;9.838;2024-01-11T04:44:06;43.33;;;26.17;;
75820;SDS011;64454;51.984;9.838;2024-01-11T04:46:32;45.03;;;26.45;;
75820;SDS011;64454;51.984;9.838;2024-01-11T04:48:58;40.83;;;24.30;;
75820;SDS011;64454;51.984;9.838;2024-01-11T04:51:24;42.05;;;24.40;;
75820;SDS011;64454;51.984;9.838;2024-01-11T04:53:50;42.42;;;25.20;;
75820;SDS011;64454;51.984;9.838;2024-01-11T04:56:17;41.75;;;25.17;;
75820;SDS011;64454;51.984;9.838;2024-01-11T04:58:44;43.10;;;24.80;;
75820;SDS011;64454;51.984;9.838;2024-01-11T05:01:11;47.80;;;26.02;;
75820;SDS011;64454;51.984;9.838;2024-01-11T05:03:38;45.58;;;27.05;;
75820;SDS011;64454;51.984;9.838;2024-01-11T05:06:04;45.47;;;25.88;;
75820;SDS011;64454;51.984;9.838;2024-01-11T05:08:31;50.53;;;26.35;;
75820;SDS011;64454;51.984;9.838;2024-01-11T05:10:57;47.72;;;26.98;;
75820;SDS011;64454;51.984;9.838;2024-01-11T05:13:23;44.72;;;26.50;;
75820;SDS011;64454;51.984;9.838;2024-01-11T05:15:50;46.00;;;26.30;;
75820;SDS011;64454;51.984;9.838;2024-01-11T05:18:16;44.22;;;26.25;;
75820;SDS011;64454;51.984;9.838;2024-01-11T05:20:42;52.55;;;27.20;;
75820;SDS011;64454;51.984;9.838;2024-01-11T05:23:08;46.35;;;26.98;;
75820;SDS011;64454;51.984;9.838;2024-01-11T05:25:35;46.05;;;26.25;;
75820;SDS011;64454;51.984;9.838;2024-01-11T05:28:01;51.13;;;27.02;;
75820;SDS011;64454;51.984;9.838;2024-01-11T05:30:29;46.83;;;26.48;;
75820;SDS011;64454;51.984;9.838;2024-01-11T05:32:56;45.60;;;25.75;;
75820;SDS011;64454;51.984;9.838;2024-01-11T05:35:23;49.20;;;26.65;;
75820;SDS011;64454;51.984;9.838;2024-01-11T05:37:52;42.22;;;25.70;;
75820;SDS011;64454;51.984;9.838;2024-01-11T05:40:19;43.33;;;25.60;;
75820;SDS011;64454;51.984;9.838;2024-01-11T05:42:46;44.85;;;27.00;;
75820;SDS011;64454;51.984;9.838;2024-01-11T05:45:12;49.10;;;24.98;;
75820;SDS011;64454;51.984;9.838;2024-01-11T05:47:41;46.23;;;26.13;;
75820;SDS011;64454;51.984;9.838;2024-01-11T05:50:09;49.05;;;27.35;;
75820;SDS011;64454;51.984;9.838;2024-01-11T05:52:35;50.95;;;26.73;;
75820;SDS011;64454;51.984;9.838;2024-01-11T05:55:01;47.30;;;28.30;;
75820;SDS011;64454;51.984;9.838;2024-01-11T05:57:28;52.92;;;29.35;;
75820;SDS011;64454;51.984;9.838;2024-01-11T05:59:54;51.75;;;28.40;;
75820;SDS011;64454;51.984;9.838;2024-01-11T06:02:20;52.33;;;27.48;;
75820;SDS011;64454;51.984;9.838;2024-01-11T06:04:47;49.13;;;27.20;;
75820;SDS011;64454;51.984;9.838;2024-01-11T06:07:15;47.13;;;26.08;;
75820;SDS011;64454;51.984;9.838;2024-01-11T06:09:41;44.10;;;26.45;;
75820;SDS011;64454;51.984;9.838;2024-01-11T06:12:07;49.63;;;26.05;;
75820;SDS011;64454;51.984;9.838;2024-01-11T06:14:34;44.05;;;25.33;;
75820;SDS011;64454;51.984;9.838;2024-01-11T06:17:00;47.42;;;27.35;;
75820;SDS011;64454;51.984;9.838;2024-01-11T06:19:26;40.90;;;25.67;;
75820;SDS011;64454;51.984;9.838;2024-01-11T06:21:52;44.00;;;24.95;;
75820;SDS011;64454;51.984;9.838;2024-01-11T06:24:19;47.42;;;26.52;;
75820;SDS011;64454;51.984;9.838;2024-01-11T06:26:45;47.42;;;26.08;;
75820;SDS011;64454;51.984;9.838;2024-01-11T06:29:11;44.20;;;26.05;;
75820;SDS011;64454;51.984;9.838;2024-01-11T06:31:37;45.08;;;27.58;;
75820;SDS011;64454;51.984;9.838;2024-01-11T06:34:03;51.23;;;27.00;;
75820;SDS011;64454;51.984;9.838;2024-01-11T06:36:29;45.75;;;27.08;;
75820;SDS011;64454;51.984;9.838;2024-01-11T06:38:56;45.97;;;25.70;;
75820;SDS011;64454;51.984;9.838;2024-01-11T06:41:22;48.95;;;26.90;;
75820;SDS011;64454;51.984;9.838;2024-01-11T06:43:49;45.85;;;27.23;;
75820;SDS011;64454;51.984;9.838;2024-01-11T06:46:19;45.67;;;26.85;;
75820;SDS011;64454;51.984;9.838;2024-01-11T06:48:45;49.83;;;27.30;;
75820;SDS011;64454;51.984;9.838;2024-01-11T06:51:13;48.33;;;28.27;;
75820;SDS011;64454;51.984;9.838;2024-01-11T06:53:41;47.28;;;27.75;;
75820;SDS011;64454;51.984;9.838;2024-01-11T06:56:13;49.25;;;28.70;;
75820;SDS011;64454;51.984;9.838;2024-01-11T06:58:40;51.40;;;30.83;;
75820;SDS011;64454;51.984;9.838;2024-01-11T07:01:06;55.97;;;33.95;;
75820;SDS011;64454;51.984;9.838;2024-01-11T07:03:33;59.77;;;35.20;;
75820;SDS011;64454;51.984;9.838;2024-01-11T07:05:59;56.13;;;32.25;;
75820;SDS011;64454;51.984;9.838;2024-01-11T07:08:25;52.65;;;31.35;;
75820;SDS011;64454;51.984;9.838;2024-01-11T07:10:51;49.13;;;30.15;;
75820;SDS011;64454;51.984;9.838;2024-01-11T07:13:17;48.80;;;29.30;;
75820;SDS011;64454;51.984;9.838;2024-01-11T07:15:44;50.25;;;29.05;;
75820;SDS011;64454;51.984;9.838;2024-01-11T07:18:10;44.72;;;27.80;;
75820;SDS011;64454;51.984;9.838;2024-01-11T07:20:36;51.07;;;29.70;;
75820;SDS011;64454;51.984;9.838;2024-01-11T07:23:03;49.15;;;28.65;;
75820;SDS011;64454;51.984;9.838;2024-01-11T07:25:29;49.50;;;28.35;;
75820;SDS011;64454;51.984;9.838;2024-01-11T07:27:55;48.75;;;28.63;;
75820;SDS011;64454;51.984;9.838;2024-01-11T07:30:21;49.83;;;29.45;;
75820;SDS011;64454;51.984;9.838;2024-01-11T07:32:48;49.58;;;28.90;;
75820;SDS011;64454;51.984;9.838;2024-01-11T07:35:14;50.92;;;28.65;;
75820;SDS011;64454;51.984;9.838;2024-01-11T07:37:40;49.58;;;28.95;;
75820;SDS011;64454;51.984;9.838;2024-01-11T07:40:07;42.08;;;25.95;;
75820;SDS011;64454;51.984;9.838;2024-01-11T07:42:35;49.70;;;26.60;;
75820;SDS011;64454;51.984;9.838;2024-01-11T07:45:02;46.53;;;27.70;;
75820;SDS011;64454;51.984;9.838;2024-01-11T07:47:30;53.53;;;31.08;;
75820;SDS011;64454;51.984;9.838;2024-01-11T07:49:57;51.70;;;29.00;;
75820;SDS011;64454;51.984;9.838;2024-01-11T07:52:23;50.25;;;28.58;;
75820;SDS011;64454;51.984;9.838;2024-01-11T07:54:49;49.10;;;29.13;;
75820;SDS011;64454;51.984;9.838;2024-01-11T07:57:15;49.90;;;29.75;;
75820;SDS011;64454;51.984;9.838;2024-01-11T07:59:41;54.13;;;32.08;;
75820;SDS011;64454;51.984;9.838;2024-01-11T08:02:07;52.72;;;29.48;;
75820;SDS011;64454;51.984;9.838;2024-01-11T08:04:34;52.10;;;30.83;;
75820;SDS011;64454;51.984;9.838;2024-01-11T08:07:00;54.00;;;30.67;;
75820;SDS011;64454;51.984;9.838;2024-01-11T08:09:27;51.35;;;30.67;;
75820;SDS011;64454;51.984;9.838;2024-01-11T08:11:53;54.85;;;30.70;;
75820;SDS011;64454;51.984;9.838;2024-01-11T08:14:19;50.28;;;29.70;;
75820;SDS011;64454;51.984;9.838;2024-01-11T08:16:45;49.97;;;28.63;;
75820;SDS011;64454;51.984;9.838;2024-01-11T08:19:12;47.60;;;27.65;;
75820;SDS011;64454;51.984;9.838;2024-01-11T08:21:38;50.92;;;28.33;;
75820;SDS011;64454;51.984;9.838;2024-01-11T08:24:05;49.80;;;29.58;;
75820;SDS011;64454;51.984;9.838;2024-01-11T08:26:32;55.28;;;31.73;;
75820;SDS011;64454;51.984;9.838;2024-01-11T08:28:58;50.35;;;31.08;;
75820;SDS011;64454;51.984;9.838;2024-01-11T08:31:25;48.33;;;30.20;;
75820;SDS011;64454;51.984;9.838;2024-01-11T08:33:51;51.45;;;28.50;;
75820;SDS011;64454;51.984;9.838;2024-01-11T08:36:18;49.20;;;28.58;;
75820;SDS011;64454;51.984;9.838;2024-01-11T08:38:45;43.92;;;27.13;;
75820;SDS011;64454;51.984;9.838;2024-01-11T08:41:12;45.30;;;26.73;;
75820;SDS011;64454;51.984;9.838;2024-01-11T08:43:38;45.30;;;27.63;;
75820;SDS011;64454;51.984;9.838;2024-01-11T08:46:04;45.95;;;28.23;;
75820;SDS011;64454;51.984;9.838;2024-01-11T08:48:30;45.35;;;29.00;;
75820;SDS011;64454;51.984;9.838;2024-01-11T08:50:56;49.65;;;29.30;;
75820;SDS011;64454;51.984;9.838;2024-01-11T08:53:22;53.30;;;30.60;;
75820;SDS011;64454;51.984;9.838;2024-01-11T08:55:49;48.20;;;29.47;;
75820;SDS011;64454;51.984;9.838;2024-01-11T08:58:15;46.70;;;27.42;;
75820;SDS011;64454;51.984;9.838;2024-01-11T09:00:41;46.83;;;29.83;;
75820;SDS011;64454;51.984;9.838;2024-01-11T09:03:09;46.67;;;28.70;;
75820;SDS011;64454;51.984;9.838;2024-01-11T09:05:36;46.28;;;29.35;;
75820;SDS011;64454;51.984;9.838;2024-01-11T09:08:03;43.03;;;28.58;;
75820;SDS011;64454;51.984;9.838;2024-01-11T09:10:32;44.50;;;29.00;;
75820;SDS011;64454;51.984;9.838;2024-01-11T09:12:58;44.00;;;28.65;;
75820;SDS011;64454;51.984;9.838;2024-01-11T09:15:25;47.15;;;28.45;;
75820;SDS011;64454;51.984;9.838;2024-01-11T09:17:51;44.20;;;28.30;;
75820;SDS011;64454;51.984;9.838;2024-01-11T09:20:17;43.23;;;27.63;;
75820;SDS011;64454;51.984;9.838;2024-01-11T09:22:43;45.60;;;30.67;;
75820;SDS011;64454;51.984;9.838;2024-01-11T09:25:10;42.47;;;28.80;;
75820;SDS011;64454;51.984;9.838;2024-01-11T09:27:36;43.60;;;29.10;;
75820;SDS011;64454;51.984;9.838;2024-01-11T09:30:03;42.90;;;29.08;;
75820;SDS011;64454;51.984;9.838;2024-01-11T09:32:32;42.47;;;29.25;;
75820;SDS011;64454;51.984;9.838;2024-01-11T09:34:58;47.30;;;28.87;;
75820;SDS011;64454;51.984;9.838;2024-01-11T09:37:24;41.38;;;29.83;;
75820;SDS011;64454;51.984;9.838;2024-01-11T09:39:50;45.45;;;29.73;;
75820;SDS011;64454;51.984;9.838;2024-01-11T09:42:17;42.35;;;29.25;;
75820;SDS011;64454;51.984;9.838;2024-01-11T09:44:44;47.65;;;31.58;;
75820;SDS011;64454;51.984;9.838;2024-01-11T09:47:11;44.40;;;29.00;;
75820;SDS011;64454;51.984;9.838;2024-01-11T09:49:40;39.63;;;29.38;;
75820;SDS011;64454;51.984;9.838;2024-01-11T09:52:08;42.75;;;30.92;;
75820;SDS011;64454;51.984;9.838;2024-01-11T09:54:38;43.05;;;31.70;;
75820;SDS011;64454;51.984;9.838;2024-01-11T09:57:05;43.65;;;31.00;;
75820;SDS011;64454;51.984;9.838;2024-01-11T09:59:35;50.45;;;34.28;;
75820;SDS011;64454;51.984;9.838;2024-01-11T10:02:02;48.15;;;33.13;;
75820;SDS011;64454;51.984;9.838;2024-01-11T10:04:31;48.50;;;31.83;;
75820;SDS011;64454;51.984;9.838;2024-01-11T10:06:57;46.47;;;33.58;;
75820;SDS011;64454;51.984;9.838;2024-01-11T10:09:27;42.75;;;31.20;;
75820;SDS011;64454;51.984;9.838;2024-01-11T10:11:53;45.38;;;32.92;;
75820;SDS011;64454;51.984;9.838;2024-01-11T10:14:20;41.33;;;30.98;;
75820;SDS011;64454;51.984;9.838;2024-01-11T10:16:47;45.33;;;32.83;;
75820;SDS011;64454;51.984;9.838;2024-01-11T10:19:13;42.55;;;31.38;;
75820;SDS011;64454;51.984;9.838;2024-01-11T10:21:41;43.25;;;31.80;;
75820;SDS011;64454;51.984;9.838;2024-01-11T10:24:08;45.05;;;32.53;;
75820;SDS011;64454;51.984;9.838;2024-01-11T10:26:34;42.73;;;32.00;;
75820;SDS011;64454;51.984;9.838;2024-01-11T10:29:01;44.92;;;33.00;;
75820;SDS011;64454;51.984;9.838;2024-01-11T10:31:28;44.97;;;32.55;;
75820;SDS011;64454;51.984;9.838;2024-01-11T10:33:54;45.50;;;30.83;;
75820;SDS011;64454;51.984;9.838;2024-01-11T10:36:20;43.22;;;31.48;;
75820;SDS011;64454;51.984;9.838;2024-01-11T10:38:47;42.55;;;30.80;;
75820;SDS011;64454;51.984;9.838;2024-01-11T10:41:14;43.33;;;31.25;;
75820;SDS011;64454;51.984;9.838;2024-01-11T10:43:45;44.20;;;29.70;;
75820;SDS011;64454;51.984;9.838;2024-01-11T10:46:13;45.30;;;31.23;;
75820;SDS011;64454;51.984;9.838;2024-01-11T10:48:47;45.55;;;30.15;;
75820;SDS011;64454;51.984;9.838;2024-01-11T10:51:21;45.28;;;31.55;;
75820;SDS011;64454;51.984;9.838;2024-01-11T10:53:50;43.67;;;31.60;;
75820;SDS011;64454;51.984;9.838;2024-01-11T10:56:19;45.28;;;31.50;;
75820;SDS011;64454;51.984;9.838;2024-01-11T10:58:45;46.25;;;32.03;;
75820;SDS011;64454;51.984;9.838;2024-01-11T11:01:13;44.33;;;31.45;;
75820;SDS011;64454;51.984;9.838;2024-01-11T11:03:40;45.35;;;30.88;;
75820;SDS011;64454;51.984;9.838;2024-01-11T11:06:09;45.03;;;29.70;;
75820;SDS011;64454;51.984;9.838;2024-01-11T11:08:37;42.80;;;29.92;;
75820;SDS011;64454;51.984;9.838;2024-01-11T11:11:05;39.60;;;27.60;;
75820;SDS011;64454;51.984;9.838;2024-01-11T11:13:32;38.45;;;26.88;;
75820;SDS011;64454;51.984;9.838;2024-01-11T11:15:59;37.85;;;23.45;;
75820;SDS011;64454;51.984;9.838;2024-01-11T11:18:28;36.43;;;22.23;;
75820;SDS011;64454;51.984;9.838;2024-01-11T11:20:55;34.45;;;22.10;;
75820;SDS011;64454;51.984;9.838;2024-01-11T11:23:23;38.33;;;24.33;;
75820;SDS011;64454;51.984;9.838;2024-01-11T11:25:49;37.75;;;24.45;;
75820;SDS011;64454;51.984;9.838;2024-01-11T11:28:18;35.22;;;24.17;;
75820;SDS011;64454;51.984;9.838;2024-01-11T11:30:48;35.42;;;24.95;;
75820;SDS011;64454;51.984;9.838;2024-01-11T11:33:16;41.92;;;27.10;;
75820;SDS011;64454;51.984;9.838;2024-01-11T11:35:45;39.30;;;25.95;;
75820;SDS011;64454;51.984;9.838;2024-01-11T11:38:16;35.08;;;25.23;;
75820;SDS011;64454;51.984;9.838;2024-01-11T11:40:44;39.80;;;26.05;;
75820;SDS011;64454;51.984;9.838;2024-01-11T11:43:13;39.28;;;24.50;;
75820;SDS011;64454;51.984;9.838;2024-01-11T11:45:42;45.38;;;27.05;;
75820;SDS011;64454;51.984;9.838;2024-01-11T11:51:16;42.50;;;26.33;;
75820;SDS011;64454;51.984;9.838;2024-01-11T11:53:44;38.40;;;25.20;;
75820;SDS011;64454;51.984;9.838;2024-01-11T11:56:12;43.33;;;25.77;;
75820;SDS011;64454;51.984;9.838;2024-01-11T11:58:41;44.80;;;28.90;;
75820;SDS011;64454;51.984;9.838;2024-01-11T12:01:09;62.13;;;36.13;;
75820;SDS011;64454;51.984;9.838;2024-01-11T12:03:36;47.53;;;29.90;;
75820;SDS011;64454;51.984;9.838;2024-01-11T12:06:05;41.85;;;25.95;;
75820;SDS011;64454;51.984;9.838;2024-01-11T12:08:33;39.38;;;25.30;;
75820;SDS011;64454;51.984;9.838;2024-01-11T12:11:00;39.95;;;24.42;;
75820;SDS011;64454;51.984;9.838;2024-01-11T12:13:26;36.55;;;24.33;;
75820;SDS011;64454;51.984;9.838;2024-01-11T12:15:53;38.67;;;24.48;;
75820;SDS011;64454;51.984;9.838;2024-01-11T12:18:20;27.80;;;19.80;;
75820;SDS011;64454;51.984;9.838;2024-01-11T12:20:47;32.78;;;21.65;;
75820;SDS011;64454;51.984;9.838;2024-01-11T12:23:13;31.95;;;21.05;;
75820;SDS011;64454;51.984;9.838;2024-01-11T12:25:41;28.20;;;18.92;;
75820;SDS011;64454;51.984;9.838;2024-01-11T12:28:07;24.90;;;15.93;;
75820;SDS011;64454;51.984;9.838;2024-01-11T12:30:34;28.45;;;19.20;;
75820;SDS011;64454;51.984;9.838;2024-01-11T12:33:00;29.63;;;17.55;;
75820;SDS011;64454;51.984;9.838;2024-01-11T12:35:27;27.75;;;17.02;;
75820;SDS011;64454;51.984;9.838;2024-01-11T12:37:54;31.00;;;19.20;;
75820;SDS011;64454;51.984;9.838;2024-01-11T12:40:21;30.13;;;17.67;;
75820;SDS011;64454;51.984;9.838;2024-01-11T12:42:48;29.30;;;17.52;;
75820;SDS011;64454;51.984;9.838;2024-01-11T12:45:14;29.63;;;18.20;;
75820;SDS011;64454;51.984;9.838;2024-01-11T12:47:41;29.90;;;19.02;;
75820;SDS011;64454;51.984;9.838;2024-01-11T12:50:08;29.63;;;19.15;;
75820;SDS011;64454;51.984;9.838;2024-01-11T12:52:35;27.43;;;17.20;;
75820;SDS011;64454;51.984;9.838;2024-01-11T12:55:01;26.38;;;16.95;;
75820;SDS011;64454;51.984;9.838;2024-01-11T12:57:30;33.28;;;19.50;;
75820;SDS011;64454;51.984;9.838;2024-01-11T13:00:03;26.00;;;17.38;;
75820;SDS011;64454;51.984;9.838;2024-01-11T13:02:35;30.80;;;16.92;;
75820;SDS011;64454;51.984;9.838;2024-01-11T13:05:02;26.15;;;17.42;;
75820;SDS011;64454;51.984;9.838;2024-01-11T13:07:30;24.30;;;16.00;;
75820;SDS011;64454;51.984;9.838;2024-01-11T13:09:56;29.90;;;18.85;;
75820;SDS011;64454;51.984;9.838;2024-01-11T13:12:22;29.38;;;18.33;;
75820;SDS011;64454;51.984;9.838;2024-01-11T13:14:49;26.42;;;17.13;;
75820;SDS011;64454;51.984;9.838;2024-01-11T13:17:17;25.98;;;15.90;;
75820;SDS011;64454;51.984;9.838;2024-01-11T13:19:44;23.15;;;14.68;;
75820;SDS011;64454;51.984;9.838;2024-01-11T13:22:10;21.58;;;14.23;;
75820;SDS011;64454;51.984;9.838;2024-01-11T13:24:36;24.20;;;14.90;;
75820;SDS011;64454;51.984;9.838;2024-01-11T13:27:03;20.70;;;13.07;;
75820;SDS011;64454;51.984;9.838;2024-01-11T13:29:29;24.15;;;13.73;;
75820;SDS011;64454;51.984;9.838;2024-01-11T13:31:56;21.77;;;14.30;;
75820;SDS011;64454;51.984;9.838;2024-01-11T13:34:22;20.80;;;13.32;;
75820;SDS011;64454;51.984;9.838;2024-01-11T13:36:48;22.90;;;13.33;;
75820;SDS011;64454;51.984;9.838;2024-01-11T13:39:14;16.58;;;12.00;;
75820;SDS011;64454;51.984;9.838;2024-01-11T13:41:43;17.63;;;11.48;;
75820;SDS011;64454;51.984;9.838;2024-01-11T13:44:09;21.00;;;12.52;;
75820;SDS011;64454;51.984;9.838;2024-01-11T13:46:36;19.63;;;11.82;;
75820;SDS011;64454;51.984;9.838;2024-01-11T13:49:03;21.25;;;12.15;;
75820;SDS011;64454;51.984;9.838;2024-01-11T13:51:29;20.65;;;12.52;;
75820;SDS011;64454;51.984;9.838;2024-01-11T13:53:57;19.45;;;12.65;;
75820;SDS011;64454;51.984;9.838;2024-01-11T13:56:24;25.75;;;15.95;;
75820;SDS011;64454;51.984;9.838;2024-01-11T13:58:50;31.52;;;17.50;;
75820;SDS011;64454;51.984;9.838;2024-01-11T14:01:16;26.80;;;16.38;;
75820;SDS011;64454;51.984;9.838;2024-01-11T14:03:42;30.40;;;16.83;;
75820;SDS011;64454;51.984;9.838;2024-01-11T14:06:09;26.00;;;16.27;;
75820;SDS011;64454;51.984;9.838;2024-01-11T14:08:35;25.57;;;16.63;;
75820;SDS011;64454;51.984;9.838;2024-01-11T14:11:02;26.63;;;15.77;;
75820;SDS011;64454;51.984;9.838;2024-01-11T14:13:28;26.15;;;15.52;;
75820;SDS011;64454;51.984;9.838;2024-01-11T14:15:54;26.92;;;16.67;;
75820;SDS011;64454;51.984;9.838;2024-01-11T14:18:21;24.77;;;15.90;;
75820;SDS011;64454;51.984;9.838;2024-01-11T14:20:48;28.80;;;17.10;;